Time;durP1;ratioP1;P1;durP2;ratioP2;P2;SDS_P1;SDS_P2;PMS_P1;PMS_P2;Temp;Humidity;BMP_temperature;BMP_pressure;BME280_temperature;BME280_humidity;BME280_pressure;Samples;Min_cycle;Max_cycle;Signal;HPM_P1;HPM_P2
2023/04/04 00:03:09;;;;;;;17.97;16.27;;;-0.30;99.90;;;;;;2609905;54;20351;-70
2023/04/04 00:13:09;;;;;;;17.23;15.43;;;-0.20;99.90;;;;;;2611074;54;20402;-70
2023/04/04 00:18:56;;;;;;;16.30;14.10;;;-0.40;99.90;;;;;;2611935;54;20363;-70
2023/04/04 00:24:44;;;;;;;17.67;15.53;;;-0.50;99.90;;;;;;2611430;54;20118;-70
2023/04/04 00:30:33;;;;;;;18.93;14.90;;;-0.50;99.90;;;;;;2611165;54;20126;-70
2023/04/04 00:36:22;;;;;;;21.33;16.57;;;-0.60;99.90;;;;;;2609362;54;20355;-69
2023/04/04 00:42:09;;;;;;;24.30;17.17;;;-0.70;99.90;;;;;;2610723;54;20367;-70
2023/04/04 00:47:58;;;;;;;16.80;15.40;;;-0.80;99.90;;;;;;2610757;54;20166;-74
2023/04/04 00:53:47;;;;;;;24.03;16.90;;;-0.60;99.90;;;;;;2610608;54;27285;-74
2023/04/04 00:59:35;;;;;;;23.13;18.33;;;-0.80;99.90;;;;;;2611003;54;20343;-74
2023/04/04 01:05:22;;;;;;;16.43;14.63;;;-0.80;99.90;;;;;;2609665;54;20490;-74
2023/04/04 01:08:36;;;;;;;13.97;12.67;;;-0.90;99.90;;;;;;2610481;54;20408;-74
2023/04/04 01:11:02;;;;;;;12.90;11.60;;;-1.00;99.90;;;;;;2610587;54;20497;-74
2023/04/04 01:16:50;;;;;;;17.03;12.97;;;-0.80;99.90;;;;;;2609714;54;20162;-74
2023/04/04 01:22:39;;;;;;;13.60;12.20;;;-0.80;99.90;;;;;;2610398;54;20362;-74
2023/04/04 01:28:27;;;;;;;15.03;11.20;;;-0.90;99.90;;;;;;2611073;54;20535;-74
2023/04/04 01:34:31;;;;;;;13.33;12.00;;;-0.90;99.90;;;;;;2610655;54;20161;-74
2023/04/04 01:40:25;;;;;;;10.97;9.87;;;-1.00;99.90;;;;;;2610646;54;20399;-75
2023/04/04 01:46:16;;;;;;;12.60;11.37;;;-1.10;99.90;;;;;;2610575;54;20403;-75
2023/04/04 01:52:06;;;;;;;13.93;12.60;;;-1.20;99.90;;;;;;2609790;54;20444;-75
2023/04/04 01:57:53;;;;;;;15.23;12.37;;;-1.30;99.90;;;;;;2613185;54;20386;-75
2023/04/04 02:03:41;;;;;;;13.00;11.80;;;-1.30;99.90;;;;;;2610263;54;20130;-75
2023/04/04 02:13:09;;;;;;;15.23;10.77;;;-1.30;99.90;;;;;;2609562;54;20410;-75
2023/04/04 02:18:58;;;;;;;17.07;9.67;;;-1.40;99.90;;;;;;2609903;39;20922;-75
2023/04/04 02:24:46;;;;;;;21.03;10.90;;;-1.50;99.90;;;;;;2608735;54;20430;-75
2023/04/04 02:30:33;;;;;;;11.17;9.80;;;-1.70;99.90;;;;;;2610330;39;20547;-75
2023/04/04 02:36:22;;;;;;;9.33;8.63;;;-1.60;99.90;;;;;;2609825;54;20147;-71
2023/04/04 02:42:10;;;;;;;11.73;10.17;;;-1.60;99.90;;;;;;2609797;54;20935;-71
2023/04/04 02:47:57;;;;;;;10.43;9.20;;;-1.70;99.90;;;;;;2610253;39;20601;-71
2023/04/04 02:53:45;;;;;;;11.57;10.40;;;-1.80;99.90;;;;;;2609290;54;20664;-71
2023/04/04 02:59:33;;;;;;;11.00;9.43;;;-1.90;99.90;;;;;;2609536;54;20346;-69
2023/04/04 03:05:25;;;;;;;13.73;10.60;;;-1.90;99.90;;;;;;2609165;54;20138;-70
2023/04/04 03:14:38;;;;;;;12.10;10.20;;;-1.90;99.90;;;;;;2609472;54;21678;-70
2023/04/04 03:20:26;;;;;;;9.10;8.30;;;-2.10;99.90;;;;;;2609367;54;20371;-69
2023/04/04 03:26:14;;;;;;;10.83;9.77;;;-2.10;99.90;;;;;;2609277;54;20387;-70
2023/04/04 03:32:02;;;;;;;12.40;10.43;;;-1.90;99.90;;;;;;2609852;54;20680;-70
2023/04/04 03:37:50;;;;;;;12.53;11.27;;;-2.10;99.90;;;;;;2610134;54;20142;-70
2023/04/04 03:43:37;;;;;;;13.30;10.80;;;-2.10;99.90;;;;;;2610712;54;20142;-70
2023/04/04 03:49:26;;;;;;;11.10;9.10;;;-1.90;99.90;;;;;;2610716;39;20503;-70
2023/04/04 03:55:13;;;;;;;11.03;9.90;;;-2.00;99.90;;;;;;2609695;54;20507;-69
2023/04/04 04:01:01;;;;;;;12.10;10.33;;;-2.10;99.90;;;;;;2611535;39;20601;-70
2023/04/04 04:06:49;;;;;;;11.77;10.50;;;-2.00;99.90;;;;;;2610235;54;20134;-70
2023/04/04 04:12:51;;;;;;;10.80;9.80;;;-2.20;99.90;;;;;;2608595;54;20151;-70
2023/04/04 04:18:39;;;;;;;12.07;10.80;;;-2.30;99.90;;;;;;2609067;39;20552;-70
2023/04/04 04:24:26;;;;;;;11.53;10.43;;;-2.50;99.90;;;;;;2608962;54;20449;-70
2023/04/04 04:30:13;;;;;;;19.53;12.70;;;-2.50;99.90;;;;;;2608285;54;20138;-70
2023/04/04 04:36:02;;;;;;;12.53;11.30;;;-2.60;99.90;;;;;;2609439;54;20447;-72
2023/04/04 04:41:49;;;;;;;10.60;9.63;;;-2.60;99.90;;;;;;2610326;54;20384;-70
2023/04/04 04:47:36;;;;;;;11.57;10.57;;;-2.60;99.90;;;;;;2610569;54;20151;-70
2023/04/04 04:53:24;;;;;;;15.73;10.83;;;-2.70;99.90;;;;;;2611275;54;20163;-69
2023/04/04 04:59:12;;;;;;;12.20;10.27;;;-2.60;99.90;;;;;;2609872;54;20569;-71
2023/04/04 05:05:00;;;;;;;17.20;11.80;;;-2.70;99.90;;;;;;2610069;54;20358;-70
2023/04/04 05:14:41;;;;;;;12.70;11.47;;;-2.50;99.90;;;;;;2610440;54;20928;-70
2023/04/04 05:20:29;;;;;;;13.10;11.60;;;-2.40;99.90;;;;;;2608471;54;20960;-70
2023/04/04 05:26:16;;;;;;;16.87;10.80;;;-2.40;99.90;;;;;;2613636;54;20147;-70
2023/04/04 05:32:04;;;;;;;13.40;12.30;;;-2.30;99.90;;;;;;2613169;54;20234;-69
2023/04/04 05:37:52;;;;;;;12.87;11.43;;;-2.10;99.90;;;;;;2612933;54;20672;-71
2023/04/04 05:43:40;;;;;;;12.47;10.87;;;-2.10;99.90;;;;;;2612122;39;20573;-70
2023/04/04 05:49:27;;;;;;;12.87;11.33;;;-1.90;99.90;;;;;;2613484;54;20154;-70
2023/04/04 05:55:15;;;;;;;13.17;10.10;;;-1.10;99.90;;;;;;2613590;54;20130;-72
2023/04/04 06:01:10;;;;;;;18.33;11.80;;;0.60;99.90;;;;;;2613826;54;20451;-71
2023/04/04 06:06:57;;;;;;;13.60;12.50;;;1.00;99.90;;;;;;2608933;54;20378;-70
2023/04/04 06:10:08;;;;;;;19.83;13.57;;;0.90;99.90;;;;;;2610711;54;22543;-70
2023/04/04 06:12:34;;;;;;;15.77;14.37;;;1.10;99.90;;;;;;2611627;39;20600;-71
2023/04/04 06:18:21;;;;;;;17.83;16.20;;;1.10;99.90;;;;;;2612839;54;20243;-70
2023/04/04 06:24:09;;;;;;;24.90;19.10;;;1.70;99.90;;;;;;2610349;54;20166;-70
2023/04/04 06:29:57;;;;;;;21.03;19.20;;;2.80;99.90;;;;;;2611563;54;20126;-71
2023/04/04 06:35:45;;;;;;;36.93;21.80;;;3.50;99.90;;;;;;2610479;54;20126;-71
2023/04/04 06:38:36;;;;;;;25.47;21.80;;;4.10;99.90;;;;;;2611566;46;20434;-71
2023/04/04 06:41:02;;;;;;;22.40;20.30;;;4.20;99.30;;;;;;2611694;47;20161;-70
2023/04/04 06:46:50;;;;;;;22.90;20.97;;;4.50;89.00;;;;;;2609612;54;20154;-70
2023/04/04 06:52:38;;;;;;;23.50;21.67;;;4.40;73.90;;;;;;2613544;54;20123;-70
2023/04/04 06:58:25;;;;;;;22.37;20.57;;;5.20;62.30;;;;;;2613420;54;20238;-70
2023/04/04 07:04:13;;;;;;;21.53;19.67;;;5.30;50.80;;;;;;2611262;39;20565;-70
2023/04/04 07:10:01;;;;;;;20.57;19.07;;;4.90;40.90;;;;;;2613555;54;20114;-71
2023/04/04 07:15:49;;;;;;;20.30;18.40;;;5.70;40.00;;;;;;2613213;54;20641;-71
2023/04/04 07:21:37;;;;;;;19.93;18.43;;;5.80;34.70;;;;;;2612966;54;20855;-70
2023/04/04 07:27:25;;;;;;;19.70;18.10;;;5.90;29.10;;;;;;2612706;54;21027;-70
2023/04/04 07:33:13;;;;;;;19.83;18.10;;;6.30;27.50;;;;;;2612738;54;20371;-70
2023/04/04 07:39:01;;;;;;;20.23;18.50;;;7.10;24.90;;;;;;2611645;54;20186;-69
2023/04/04 07:44:49;;;;;;;20.90;19.10;;;7.20;19.70;;;;;;2611366;54;20399;-70
2023/04/04 07:50:37;;;;;;;19.27;18.03;;;6.90;17.60;;;;;;2611994;54;21009;-71
2023/04/04 07:56:25;;;;;;;18.40;16.90;;;7.90;16.30;;;;;;2612496;54;20130;-69
2023/04/04 08:02:12;;;;;;;19.57;18.00;;;7.90;14.00;;;;;;2611549;54;20143;-69
2023/04/04 08:08:00;;;;;;;18.30;17.00;;;7.80;10.80;;;;;;2611684;39;20231;-70
2023/04/04 08:17:11;;;;;;;17.73;16.37;;;8.10;3.00;;;;;;2612163;54;20987;-73
2023/04/04 08:22:58;;;;;;;17.40;16.30;;;8.20;1.00;;;;;;2610696;54;20375;-70
2023/04/04 08:28:46;;;;;;;16.00;14.93;;;8.70;1.00;;;;;;2612903;54;20118;-70
2023/04/04 08:34:34;;;;;;;14.97;14.17;;;8.50;1.00;;;;;;2612457;54;20371;-70
2023/04/04 08:40:22;;;;;;;14.50;13.80;;;9.20;1.00;;;;;;2612107;54;20150;-69
2023/04/04 08:46:11;;;;;;;14.17;13.43;;;9.30;1.00;;;;;;2613052;46;20762;-70
2023/04/04 08:52:00;;;;;;;14.30;13.40;;;9.30;1.00;;;;;;2613680;39;20842;-70
2023/04/04 08:57:48;;;;;;;14.07;13.33;;;9.00;1.00;;;;;;2613184;54;20399;-69
2023/04/04 09:03:37;;;;;;;14.80;14.00;;;9.50;1.00;;;;;;2613402;39;20698;-70
2023/04/04 09:09:24;;;;;;;14.17;13.40;;;9.70;1.00;;;;;;2613559;54;20367;-70
2023/04/04 09:15:24;;;;;;;13.13;12.30;;;9.90;1.00;;;;;;2611622;46;20404;-71
2023/04/04 09:21:12;;;;;;;13.93;13.03;;;9.70;1.00;;;;;;2611850;54;20941;-71
2023/04/04 09:27:00;;;;;;;14.60;13.80;;;9.60;1.00;;;;;;2611887;54;20359;-70
2023/04/04 09:32:47;;;;;;;13.90;13.20;;;10.10;1.00;;;;;;2612235;54;20363;-70
2023/04/04 09:38:41;;;;;;;13.50;12.90;;;10.10;1.00;;;;;;2610907;54;20147;-71
2023/04/04 09:44:32;;;;;;;14.70;13.80;;;9.90;1.00;;;;;;2609871;54;20452;-70
2023/04/04 09:50:23;;;;;;;13.60;13.00;;;10.70;1.00;;;;;;2611107;54;20395;-70
2023/04/04 09:56:11;;;;;;;13.50;12.80;;;10.30;1.00;;;;;;2610876;54;21123;-70
2023/04/04 10:02:01;;;;;;;14.17;13.47;;;11.00;1.00;;;;;;2612546;54;20788;-70
2023/04/04 10:07:48;;;;;;;14.43;13.20;;;10.40;1.00;;;;;;2611061;54;20378;-70
2023/04/04 10:17:14;;;;;;;14.13;13.37;;;10.80;1.00;;;;;;2612919;54;20419;-70
2023/04/04 10:23:03;;;;;;;13.20;12.30;;;11.50;1.00;;;;;;2612829;54;20363;-69
2023/04/04 10:28:50;;;;;;;13.60;12.90;;;10.70;1.00;;;;;;2612831;54;20407;-70
2023/04/04 10:40:57;;;;;;;13.77;12.97;;;10.30;1.00;;;;;;2607955;54;20419;-70
2023/04/04 10:46:49;;;;;;;13.63;12.90;;;10.70;1.00;;;;;;2612075;39;20894;-71
2023/04/04 10:56:15;;;;;;;14.10;13.40;;;10.30;1.00;;;;;;2610520;54;20411;-70
2023/04/04 11:02:02;;;;;;;14.83;13.83;;;11.30;1.00;;;;;;2607853;54;20411;-70
2023/04/04 11:07:59;;;;;;;14.37;13.37;;;10.20;1.00;;;;;;2612601;31;20675;-74
2023/04/04 11:17:12;;;;;;;13.47;12.47;;;11.40;1.00;;;;;;2607537;54;20426;-73
2023/04/04 11:26:49;;;;;;;14.50;13.70;;;11.70;1.00;;;;;;2606836;54;21020;-74
2023/04/04 11:42:33;;;;;;;14.30;13.50;;;11.00;1.00;;;;;;2609060;54;20519;-73
2023/04/04 11:48:22;;;;;;;14.50;13.27;;;11.40;1.00;;;;;;2610568;54;20391;-74
2023/04/04 11:54:15;;;;;;;14.07;13.33;;;10.80;1.00;;;;;;2612874;54;20403;-74
2023/04/04 12:00:06;;;;;;;14.23;13.40;;;11.30;1.00;;;;;;2610977;54;20374;-73
2023/04/04 12:05:53;;;;;;;14.40;13.47;;;12.20;1.00;;;;;;2610299;39;20781;-73
2023/04/04 12:11:42;;;;;;;15.30;14.20;;;11.40;1.00;;;;;;2609745;54;20443;-73
2023/04/04 12:17:29;;;;;;;14.10;13.30;;;11.50;1.00;;;;;;2609265;39;20892;-73
2023/04/04 12:23:17;;;;;;;14.60;13.90;;;12.60;1.00;;;;;;2609750;54;20191;-74
2023/04/04 12:29:06;;;;;;;14.43;13.73;;;12.20;1.00;;;;;;2609948;54;20387;-73
2023/04/04 12:34:59;;;;;;;14.50;13.50;;;12.60;1.00;;;;;;2609575;54;20398;-73
2023/04/04 12:40:50;;;;;;;17.47;16.27;;;12.90;1.00;;;;;;2609596;54;20398;-74
2023/04/04 12:46:40;;;;;;;14.57;13.67;;;13.60;1.00;;;;;;2610819;54;20382;-74
2023/04/04 12:52:32;;;;;;;15.60;14.57;;;13.30;1.00;;;;;;2608109;39;20783;-73
2023/04/04 12:58:24;;;;;;;16.57;15.67;;;12.30;1.00;;;;;;2610775;54;20376;-74
2023/04/04 13:04:16;;;;;;;14.87;13.83;;;14.00;1.00;;;;;;2610919;47;20470;-73
2023/04/04 13:10:06;;;;;;;15.07;14.17;;;14.60;1.00;;;;;;2611432;54;20422;-73
2023/04/04 13:19:15;;;;;;;15.43;14.53;;;12.70;1.00;;;;;;2610011;54;21180;-74
2023/04/04 13:25:04;;;;;;;15.80;15.00;;;12.60;1.00;;;;;;2608983;54;20188;-73
2023/04/04 13:30:53;;;;;;;16.43;15.03;;;13.50;1.00;;;;;;2612292;54;20958;-74
2023/04/04 13:36:40;;;;;;;16.13;15.03;;;13.40;1.00;;;;;;2614127;54;20363;-73
2023/04/04 13:42:30;;;;;;;16.37;15.43;;;14.30;1.00;;;;;;2611660;54;20263;-74
2023/04/04 13:48:18;;;;;;;16.80;15.83;;;14.40;1.00;;;;;;2613398;54;20434;-73
2023/04/04 13:54:05;;;;;;;17.37;15.70;;;13.10;1.00;;;;;;2613100;54;20125;-74
2023/04/04 13:59:55;;;;;;;16.63;15.60;;;14.40;1.00;;;;;;2612277;54;20122;-74
2023/04/04 14:05:43;;;;;;;16.47;15.47;;;14.50;1.00;;;;;;2610166;54;20981;-73
2023/04/04 14:11:33;;;;;;;16.80;15.80;;;14.90;1.00;;;;;;2608354;54;20130;-73
2023/04/04 14:14:42;;;;;;;16.47;15.57;;;13.90;1.00;;;;;;2608514;54;20422;-73
2023/04/04 14:17:08;;;;;;;16.57;15.57;;;14.00;1.00;;;;;;2610670;47;20423;-73
2023/04/04 14:22:57;;;;;;;16.67;15.67;;;13.90;1.00;;;;;;2612662;54;20656;-73
2023/04/04 14:28:45;;;;;;;17.27;16.27;;;13.00;1.00;;;;;;2611345;54;20423;-74
2023/04/04 14:34:33;;;;;;;16.70;15.40;;;12.50;1.00;;;;;;2613265;54;20383;-74
2023/04/04 14:40:21;;;;;;;17.00;16.00;;;12.70;1.00;;;;;;2613903;54;20227;-74
2023/04/04 14:46:08;;;;;;;17.83;16.83;;;11.80;1.00;;;;;;2613523;54;20789;-74
2023/04/04 14:51:56;;;;;;;17.30;16.20;;;11.90;1.00;;;;;;2613742;54;20151;-74
2023/04/04 14:57:44;;;;;;;17.37;16.30;;;11.70;1.00;;;;;;2611488;39;20384;-73
2023/04/04 15:03:33;;;;;;;16.80;15.80;;;11.10;1.00;;;;;;2614015;54;20126;-73
2023/04/04 15:09:22;;;;;;;16.53;15.30;;;10.90;1.00;;;;;;2609629;54;20355;-74
2023/04/04 15:19:15;;;;;;;16.30;15.50;;;11.60;1.00;;;;;;2611060;54;20375;-74
2023/04/04 15:25:04;;;;;;;17.33;16.13;;;12.00;1.00;;;;;;2606784;54;20531;-74
2023/04/04 15:30:51;;;;;;;16.23;15.03;;;12.00;1.00;;;;;;2610014;54;20403;-74
2023/04/04 15:36:41;;;;;;;17.27;15.53;;;11.40;1.00;;;;;;2609799;54;20137;-74
2023/04/04 15:42:30;;;;;;;13.90;13.20;;;11.00;1.00;;;;;;2609933;54;20415;-74
2023/04/04 15:48:17;;;;;;;14.10;13.30;;;11.40;1.00;;;;;;2609025;54;20390;-74
2023/04/04 15:54:05;;;;;;;16.43;15.27;;;11.40;1.00;;;;;;2609902;39;20544;-73
2023/04/04 15:59:53;;;;;;;14.40;13.50;;;11.60;1.00;;;;;;2606597;54;20198;-75
2023/04/04 16:05:40;;;;;;;14.90;14.10;;;12.20;1.00;;;;;;2608862;54;20154;-74
2023/04/04 16:11:28;;;;;;;15.73;14.77;;;11.80;1.00;;;;;;2607962;54;20122;-73
2023/04/04 16:14:42;;;;;;;15.27;14.17;;;11.50;1.00;;;;;;2607701;39;20872;-73
2023/04/04 16:17:08;;;;;;;15.00;13.93;;;11.70;1.00;;;;;;2606983;54;20170;-74
2023/04/04 16:22:56;;;;;;;15.60;14.70;;;11.40;1.00;;;;;;2611196;54;20208;-74
2023/04/04 16:28:44;;;;;;;15.23;14.40;;;10.10;1.00;;;;;;2611908;54;20151;-73
2023/04/04 16:34:32;;;;;;;16.80;15.67;;;10.80;1.00;;;;;;2613637;54;20387;-73
2023/04/04 16:40:20;;;;;;;16.60;15.60;;;10.80;1.00;;;;;;2612421;39;20529;-73
2023/04/04 16:46:07;;;;;;;14.80;14.10;;;11.50;1.00;;;;;;2613739;54;20145;-74
2023/04/04 16:51:55;;;;;;;16.83;15.60;;;10.50;1.00;;;;;;2614025;31;20566;-73
2023/04/04 16:57:45;;;;;;;14.60;13.33;;;10.40;1.00;;;;;;2612536;54;20134;-73
2023/04/04 17:03:33;;;;;;;15.50;14.50;;;10.50;1.00;;;;;;2613681;54;21281;-73
2023/04/04 17:09:20;;;;;;;15.07;14.07;;;9.80;1.00;;;;;;2613489;54;20131;-74
2023/04/04 17:19:14;;;;;;;17.00;15.67;;;9.00;1.00;;;;;;2612084;54;20410;-74
2023/04/04 17:25:02;;;;;;;17.30;16.23;;;8.70;1.00;;;;;;2612522;54;20978;-74
2023/04/04 17:30:50;;;;;;;15.50;14.70;;;8.60;1.00;;;;;;2613316;39;20534;-75
2023/04/04 17:36:38;;;;;;;17.27;15.87;;;8.50;1.00;;;;;;2613387;54;20150;-73
2023/04/04 17:42:26;;;;;;;14.73;13.93;;;8.30;1.00;;;;;;2611866;54;20427;-74
2023/04/04 17:48:14;;;;;;;16.20;15.00;;;8.00;1.00;;;;;;2609140;54;20130;-74
2023/04/04 17:54:02;;;;;;;16.47;15.37;;;7.90;1.00;;;;;;2609351;54;20130;-75
2023/04/04 17:59:50;;;;;;;17.50;16.23;;;7.70;1.00;;;;;;2610502;54;20391;-75
2023/04/04 18:05:39;;;;;;;15.63;14.40;;;7.50;1.00;;;;;;2609797;54;20260;-74
2023/04/04 18:11:27;;;;;;;16.60;15.50;;;7.40;1.00;;;;;;2609169;46;20507;-75
2023/04/04 18:14:42;;;;;;;17.13;16.03;;;7.40;1.00;;;;;;2608466;53;21000;-75
2023/04/04 18:17:09;;;;;;;15.93;14.93;;;7.30;1.00;;;;;;2608509;47;21013;-75
2023/04/04 18:22:56;;;;;;;17.40;15.90;;;6.90;1.00;;;;;;2609061;54;20909;-74
2023/04/04 18:28:44;;;;;;;17.27;16.10;;;6.60;1.00;;;;;;2608519;39;20546;-75
2023/04/04 18:34:33;;;;;;;18.90;17.53;;;6.50;1.00;;;;;;2610376;54;20138;-75
2023/04/04 18:40:20;;;;;;;18.63;17.10;;;6.30;1.00;;;;;;2609118;54;21798;-75
2023/04/04 18:46:08;;;;;;;17.33;16.27;;;6.20;1.00;;;;;;2608259;54;20755;-74
2023/04/04 18:51:56;;;;;;;18.43;17.13;;;5.90;1.00;;;;;;2612274;54;20134;-75
2023/04/04 18:57:47;;;;;;;18.60;17.27;;;5.90;1.20;;;;;;2612606;54;20487;-75
2023/04/04 19:03:40;;;;;;;23.77;21.60;;;5.70;6.50;;;;;;2611062;54;20394;-74
2023/04/04 19:09:30;;;;;;;25.20;23.00;;;5.40;12.50;;;;;;2611548;54;20464;-75
2023/04/04 19:19:14;;;;;;;23.03;21.03;;;5.10;15.80;;;;;;2613317;39;20638;-74
2023/04/04 19:25:01;;;;;;;20.43;18.80;;;5.20;26.30;;;;;;2612036;54;20422;-75
2023/04/04 19:30:53;;;;;;;26.23;24.10;;;5.00;31.00;;;;;;2613415;39;20565;-74
2023/04/04 19:36:41;;;;;;;22.80;20.70;;;5.00;37.90;;;;;;2610713;39;20745;-75
2023/04/04 19:42:29;;;;;;;23.23;21.43;;;4.90;40.90;;;;;;2612010;54;20126;-74
2023/04/04 19:55:08;;;;;;;29.03;26.00;;;5.10;44.60;;;;;;2613710;54;20366;-74
2023/04/04 20:00:56;;;;;;;29.00;26.33;;;5.20;33.30;;;;;;2610762;54;20431;-76
2023/04/04 20:06:46;;;;;;;27.93;25.30;;;5.30;27.70;;;;;;2613501;54;20149;-75
2023/04/04 20:12:33;;;;;;;21.70;19.70;;;5.10;29.00;;;;;;2612446;54;20415;-74
2023/04/04 20:21:43;;;;;;;19.67;17.97;;;5.40;20.80;;;;;;2612905;54;20488;-75
2023/04/04 20:27:32;;;;;;;19.17;17.60;;;5.20;19.00;;;;;;2614134;54;20134;-75
2023/04/04 20:33:36;;;;;;;16.90;15.90;;;5.30;17.50;;;;;;2614508;54;20403;-75
2023/04/04 20:39:55;;;;;;;18.40;17.10;;;5.20;20.30;;;;;;2611339;54;20932;-75
2023/04/04 20:45:45;;;;;;;18.53;17.03;;;5.10;23.90;;;;;;2614157;54;20444;-75
2023/04/04 20:51:34;;;;;;;18.80;17.50;;;4.90;27.50;;;;;;2614289;54;20367;-74
2023/04/04 20:57:24;;;;;;;18.43;17.23;;;4.80;38.30;;;;;;2613217;54;20126;-74
2023/04/04 21:03:24;;;;;;;19.00;17.80;;;4.70;37.50;;;;;;2614569;39;20635;-73
2023/04/04 21:09:12;;;;;;;21.10;19.30;;;4.60;46.30;;;;;;2614570;54;20844;-75
2023/04/04 21:14:59;;;;;;;19.93;18.40;;;4.50;53.80;;;;;;2614563;54;20162;-75
2023/04/04 21:24:18;;;;;;;21.60;19.77;;;4.30;73.80;;;;;;2614247;54;20407;-75
2023/04/04 21:30:07;;;;;;;22.13;20.43;;;4.10;89.00;;;;;;2613979;54;20387;-75
2023/04/04 21:35:55;;;;;;;20.03;18.53;;;3.90;94.70;;;;;;2614309;54;20415;-75
2023/04/04 21:41:43;;;;;;;21.17;19.23;;;3.60;99.90;;;;;;2614482;54;20129;-74
2023/04/04 21:47:31;;;;;;;22.93;20.83;;;3.50;99.90;;;;;;2614532;54;21110;-75
2023/04/04 21:53:20;;;;;;;19.50;18.10;;;3.50;99.90;;;;;;2614348;54;20122;-75
2023/04/04 21:59:08;;;;;;;20.03;18.40;;;3.20;99.90;;;;;;2614027;54;20410;-75
2023/04/04 22:04:58;;;;;;;18.70;17.10;;;2.80;99.90;;;;;;2614123;54;20363;-74
2023/04/04 22:10:48;;;;;;;20.67;18.77;;;2.60;99.90;;;;;;2614572;54;20387;-74
2023/04/04 22:16:37;;;;;;;21.43;19.73;;;2.50;99.90;;;;;;2614068;54;20366;-74
2023/04/04 22:19:43;;;;;;;19.07;17.37;;;2.40;99.90;;;;;;2613923;39;20844;-75
2023/04/04 22:22:09;;;;;;;19.00;17.33;;;2.40;99.90;;;;;;2614168;39;20909;-74
2023/04/04 22:27:57;;;;;;;19.47;17.67;;;2.30;99.90;;;;;;2613721;54;20398;-74
2023/04/04 22:33:45;;;;;;;19.23;17.53;;;2.20;99.90;;;;;;2613265;54;20238;-75
2023/04/04 22:39:33;;;;;;;18.27;16.67;;;2.30;99.90;;;;;;2614220;54;20122;-74
2023/04/04 22:45:21;;;;;;;19.97;18.03;;;2.20;99.90;;;;;;2613931;54;20420;-75
2023/04/04 22:51:13;;;;;;;19.83;18.10;;;2.10;99.90;;;;;;2612317;54;20419;-75
2023/04/04 22:57:01;;;;;;;20.20;18.20;;;2.00;99.90;;;;;;2613763;54;20427;-74
2023/04/04 23:02:52;;;;;;;20.10;18.37;;;1.90;99.90;;;;;;2613790;54;20139;-74
2023/04/04 23:08:39;;;;;;;20.30;18.23;;;1.70;99.90;;;;;;2614538;39;20896;-75
2023/04/04 23:14:29;;;;;;;21.37;19.37;;;1.60;99.90;;;;;;2613946;54;20126;-75
2023/04/04 23:24:36;;;;;;;21.27;19.20;;;1.80;99.90;;;;;;2613795;54;20438;-75
2023/04/04 23:30:24;;;;;;;27.83;19.20;;;1.90;99.90;;;;;;2612524;54;20412;-74
2023/04/04 23:36:11;;;;;;;18.93;17.13;;;2.10;99.90;;;;;;2612683;54;20386;-74
2023/04/04 23:41:58;;;;;;;19.07;17.37;;;2.10;99.90;;;;;;2612245;54;20267;-75
2023/04/04 23:47:45;;;;;;;18.93;17.00;;;2.00;99.90;;;;;;2612868;54;20138;-74
2023/04/04 23:53:33;;;;;;;16.73;15.23;;;2.00;99.90;;;;;;2612507;54;20131;-74
2023/04/04 23:59:20;;;;;;;17.13;15.80;;;1.80;99.90;;;;;;2613488;54;20382;-74
